createdAt,value
2018-07-10T00:00:35.488Z,0
2018-07-10T00:01:35.741Z,0
2018-07-10T00:02:35.478Z,0
2018-07-10T00:03:35.721Z,0
2018-07-10T00:04:35.712Z,0
2018-07-10T00:05:35.432Z,0
2018-07-10T00:06:35.152Z,0
2018-07-10T00:07:35.008Z,0
2018-07-10T00:08:35.137Z,0
2018-07-10T00:09:35.379Z,0
2018-07-10T00:10:35.382Z,0
2018-07-10T00:11:35.098Z,0
2018-07-10T00:12:35.344Z,0
2018-07-10T00:13:35.073Z,0
2018-07-10T00:14:35.584Z,0
2018-07-10T00:15:35.362Z,0
2018-07-10T00:16:35.301Z,0
2018-07-10T00:17:35.017Z,0
2018-07-10T00:18:35.541Z,0
2018-07-10T00:19:34.740Z,0
2018-07-10T00:20:35.248Z,0
2018-07-10T00:21:35.498Z,0
2018-07-10T00:22:35.230Z,0
2018-07-10T00:23:35.207Z,0
2018-07-10T00:24:35.198Z,0
2018-07-10T00:25:35.187Z,0
2018-07-10T00:26:34.910Z,0
2018-07-10T00:27:35.423Z,0
2018-07-10T00:28:34.887Z,0
2018-07-10T00:29:34.882Z,0
2018-07-10T00:30:35.131Z,0
2018-07-10T00:31:35.379Z,0
2018-07-10T00:32:35.365Z,0
2018-07-10T00:33:35.384Z,0
2018-07-10T00:34:35.073Z,0
2018-07-10T00:35:35.320Z,0
2018-07-10T00:36:35.317Z,0
2018-07-10T00:37:35.316Z,0
2018-07-10T00:38:34.763Z,0
2018-07-10T00:39:35.282Z,0
2018-07-10T00:40:34.733Z,0
2018-07-10T00:41:35.254Z,0
2018-07-10T00:42:34.985Z,0
2018-07-10T00:43:35.231Z,0
2018-07-10T00:44:34.687Z,0
2018-07-10T00:45:34.669Z,0
2018-07-10T00:46:34.923Z,0
2018-07-10T00:47:34.918Z,0
2018-07-10T00:48:34.902Z,0
2018-07-10T00:49:34.634Z,0
2018-07-10T00:50:34.616Z,0
2018-07-10T00:51:34.604Z,0
2018-07-10T00:52:34.854Z,0
2018-07-10T00:53:35.114Z,0
2018-07-10T00:54:34.843Z,0
2018-07-10T00:55:34.550Z,0
2018-07-10T00:56:34.798Z,0
2018-07-10T00:57:34.793Z,0
2018-07-10T00:58:34.774Z,0
2018-07-10T00:59:35.035Z,0
2018-07-10T01:00:34.491Z,0
2018-07-10T01:01:34.761Z,0
2018-07-10T01:02:34.734Z,0
2018-07-10T01:03:34.989Z,0
2018-07-10T01:04:35.029Z,0
2018-07-10T01:05:34.159Z,0
2018-07-10T01:06:34.673Z,0
2018-07-10T01:07:34.940Z,0
2018-07-10T01:08:34.386Z,0
2018-07-10T01:09:34.381Z,0
2018-07-10T01:10:34.370Z,0
2018-07-10T01:11:34.881Z,0
2018-07-10T01:12:34.343Z,0
2018-07-10T01:13:34.330Z,0
2018-07-10T01:14:34.323Z,0
2018-07-10T01:15:34.830Z,0
2018-07-10T01:16:34.580Z,0
2018-07-10T01:17:34.546Z,0
2018-07-10T01:18:34.270Z,0
2018-07-10T01:19:34.799Z,0
2018-07-10T01:20:34.501Z,0
2018-07-10T01:21:34.775Z,0
2018-07-10T01:22:34.748Z,0
2018-07-10T01:23:34.209Z,0
2018-07-10T01:24:33.936Z,0
2018-07-10T01:25:34.441Z,0
2018-07-10T01:26:34.423Z,0
2018-07-10T01:27:34.422Z,0
2018-07-10T01:28:34.133Z,0
2018-07-10T01:29:34.393Z,0
2018-07-10T01:30:34.380Z,0
2018-07-10T01:31:34.360Z,0
2018-07-10T01:32:34.090Z,0
2018-07-10T01:33:34.356Z,0
2018-07-10T01:34:34.587Z,0
2018-07-10T01:35:33.785Z,0
2018-07-10T01:36:34.037Z,0
2018-07-10T01:37:34.289Z,0
2018-07-10T01:38:34.547Z,0
2018-07-10T01:39:34.001Z,0
2018-07-10T01:40:34.246Z,0
2018-07-10T01:41:33.972Z,0
2018-07-10T01:42:34.223Z,0
2018-07-10T01:43:34.220Z,0
2018-07-10T01:44:34.207Z,0
2018-07-10T01:45:34.191Z,0
2018-07-10T01:46:34.169Z,0
2018-07-10T01:47:34.180Z,0
2018-07-10T01:48:34.436Z,0
2018-07-10T01:49:34.077Z,0
2018-07-10T01:50:34.384Z,0
2018-07-10T01:51:34.377Z,0
2018-07-10T01:52:34.365Z,0
2018-07-10T01:53:34.342Z,0
2018-07-10T01:54:34.075Z,0
2018-07-10T01:55:34.076Z,0
2018-07-10T01:56:34.252Z,0
2018-07-10T01:57:34.304Z,0
2018-07-10T01:58:33.501Z,0
2018-07-10T01:59:34.010Z,0
2018-07-10T02:00:34.267Z,0
2018-07-10T02:01:34.288Z,0
2018-07-10T02:02:33.976Z,0
2018-07-10T02:03:34.229Z,0
2018-07-10T02:04:34.217Z,0
2018-07-10T02:05:33.668Z,0
2018-07-10T02:06:33.929Z,0
2018-07-10T02:07:33.913Z,0
2018-07-10T02:08:33.895Z,0
2018-07-10T02:09:33.881Z,0
2018-07-10T02:10:34.132Z,0
2018-07-10T02:11:34.125Z,0
2018-07-10T02:12:33.588Z,0
2018-07-10T02:13:34.146Z,0
2018-07-10T02:14:33.559Z,0
2018-07-10T02:15:33.541Z,0
2018-07-10T02:16:33.530Z,0
2018-07-10T02:17:33.784Z,0
2018-07-10T02:18:33.765Z,0
2018-07-10T02:19:33.501Z,0
2018-07-10T02:20:33.482Z,0
2018-07-10T02:21:34.004Z,0
2018-07-10T02:22:33.713Z,0
2018-07-10T02:23:33.969Z,0
2018-07-10T02:24:33.436Z,0
2018-07-10T02:25:33.415Z,0
2018-07-10T02:26:33.931Z,0
2018-07-10T02:27:33.391Z,0
2018-07-10T02:28:33.372Z,0
2018-07-10T02:29:33.370Z,0
2018-07-10T02:30:33.364Z,0
2018-07-10T02:31:33.341Z,0
2018-07-10T02:32:33.601Z,0
2018-07-10T02:33:33.846Z,0
2018-07-10T02:34:33.574Z,0
2018-07-10T02:35:33.559Z,0
2018-07-10T02:36:33.537Z,0
2018-07-10T02:37:33.534Z,0
2018-07-10T02:38:33.517Z,0
2018-07-10T02:39:33.502Z,0
2018-07-10T02:40:33.218Z,0
2018-07-10T02:41:33.478Z,0
2018-07-10T02:42:33.735Z,0
2018-07-10T02:43:33.446Z,0
2018-07-10T02:44:33.704Z,0
2018-07-10T02:45:33.687Z,0
2018-07-10T02:46:33.709Z,0
2018-07-10T02:47:32.868Z,0
2018-07-10T02:48:33.390Z,4
2018-07-10T02:49:33.376Z,4
2018-07-10T02:50:33.624Z,4
2018-07-10T02:51:33.349Z,0
2018-07-10T02:52:33.340Z,4
2018-07-10T02:53:32.789Z,4
2018-07-10T02:54:33.311Z,4
2018-07-10T02:55:33.289Z,4
2018-07-10T02:56:33.285Z,8
2018-07-10T02:57:33.011Z,8
2018-07-10T02:58:33.259Z,8
2018-07-10T02:59:33.247Z,8
2018-07-10T03:00:32.703Z,12
2018-07-10T03:01:33.484Z,12
2018-07-10T03:02:33.478Z,12
2018-07-10T03:03:33.186Z,16
2018-07-10T03:04:32.646Z,16
2018-07-10T03:05:33.160Z,20
2018-07-10T03:06:33.159Z,20
2018-07-10T03:07:33.139Z,24
2018-07-10T03:08:33.396Z,28
2018-07-10T03:09:32.872Z,28
2018-07-10T03:10:33.119Z,32
2018-07-10T03:11:33.095Z,36
2018-07-10T03:12:33.339Z,40
2018-07-10T03:13:33.342Z,44
2018-07-10T03:14:32.792Z,48
2018-07-10T03:15:33.044Z,56
2018-07-10T03:16:33.280Z,56
2018-07-10T03:17:33.007Z,68
2018-07-10T03:18:32.726Z,68
2018-07-10T03:19:33.251Z,72
2018-07-10T03:20:32.986Z,80
2018-07-10T03:21:32.683Z,88
2018-07-10T03:22:33.208Z,100
2018-07-10T03:23:32.952Z,108
2018-07-10T03:24:32.912Z,116
2018-07-10T03:25:32.905Z,128
2018-07-10T03:26:33.142Z,136
2018-07-10T03:27:33.142Z,140
2018-07-10T03:28:32.857Z,148
2018-07-10T03:29:32.835Z,152
2018-07-10T03:30:32.828Z,156
2018-07-10T03:31:32.831Z,164
2018-07-10T03:32:32.549Z,168
2018-07-10T03:33:32.790Z,184
2018-07-10T03:34:32.513Z,204
2018-07-10T03:35:33.031Z,216
2018-07-10T03:36:33.426Z,224
2018-07-10T03:37:32.730Z,240
2018-07-10T03:38:32.716Z,244
2018-07-10T03:39:32.970Z,244
2018-07-10T03:40:32.433Z,256
2018-07-10T03:41:32.693Z,276
2018-07-10T03:42:32.141Z,296
2018-07-10T03:43:32.653Z,300
2018-07-10T03:44:32.106Z,308
2018-07-10T03:45:32.631Z,320
2018-07-10T03:46:32.661Z,328
2018-07-10T03:47:32.596Z,344
2018-07-10T03:48:32.585Z,352
2018-07-10T03:49:32.777Z,368
2018-07-10T03:50:32.290Z,384
2018-07-10T03:51:32.537Z,400
2018-07-10T03:52:32.803Z,428
2018-07-10T03:53:32.513Z,452
2018-07-10T03:54:32.242Z,472
2018-07-10T03:55:32.752Z,496
2018-07-10T03:56:32.472Z,516
2018-07-10T03:57:32.193Z,536
2018-07-10T03:58:32.715Z,556
2018-07-10T03:59:32.698Z,580
2018-07-10T04:00:32.157Z,612
2018-07-10T04:01:32.454Z,652
2018-07-10T04:02:32.665Z,672
2018-07-10T04:03:32.119Z,704
2018-07-10T04:04:31.846Z,704
2018-07-10T04:05:32.618Z,728
2018-07-10T04:06:32.338Z,728
2018-07-10T04:07:32.588Z,712
2018-07-10T04:08:32.519Z,720
2018-07-10T04:09:32.042Z,764
2018-07-10T04:10:32.560Z,800
2018-07-10T04:11:32.535Z,804
2018-07-10T04:12:32.266Z,736
2018-07-10T04:13:32.254Z,660
2018-07-10T04:14:32.247Z,632
2018-07-10T04:15:32.008Z,616
2018-07-10T04:16:32.471Z,620
2018-07-10T04:17:31.935Z,628
2018-07-10T04:18:32.176Z,656
2018-07-10T04:19:32.165Z,708
2018-07-10T04:20:32.150Z,772
2018-07-10T04:21:32.142Z,808
2018-07-10T04:22:32.123Z,904
2018-07-10T04:23:32.112Z,960
2018-07-10T04:24:31.833Z,1004
2018-07-10T04:25:32.344Z,1072
2018-07-10T04:26:32.066Z,1116
2018-07-10T04:27:31.806Z,1116
2018-07-10T04:28:32.041Z,1140
2018-07-10T04:29:31.774Z,1128
2018-07-10T04:30:32.279Z,1096
2018-07-10T04:31:32.279Z,1144
2018-07-10T04:32:32.267Z,1156
2018-07-10T04:33:31.982Z,1196
2018-07-10T04:34:31.701Z,1232
2018-07-10T04:35:31.949Z,1256
2018-07-10T04:36:31.941Z,1280
2018-07-10T04:37:32.193Z,1368
2018-07-10T04:38:31.911Z,1388
2018-07-10T04:39:31.900Z,1452
2018-07-10T04:40:32.138Z,1488
2018-07-10T04:41:32.134Z,1500
2018-07-10T04:42:31.815Z,1496
2018-07-10T04:43:31.847Z,1500
2018-07-10T04:44:31.561Z,1504
2018-07-10T04:45:31.559Z,1544
2018-07-10T04:46:31.535Z,1632
2018-07-10T04:47:31.534Z,1728
2018-07-10T04:48:31.518Z,1632
2018-07-10T04:49:31.979Z,1484
2018-07-10T04:50:31.488Z,1332
2018-07-10T04:51:31.734Z,1128
2018-07-10T04:52:31.731Z,1100
2018-07-10T04:53:31.712Z,1080
2018-07-10T04:54:31.690Z,1060
2018-07-10T04:55:31.459Z,1044
2018-07-10T04:56:31.931Z,1048
2018-07-10T04:57:31.123Z,1060
2018-07-10T04:58:31.905Z,1064
2018-07-10T04:59:31.629Z,1076
2018-07-10T05:00:31.624Z,1120
2018-07-10T05:01:31.881Z,1224
2018-07-10T05:02:31.587Z,1412
2018-07-10T05:03:31.837Z,1696
2018-07-10T05:04:31.298Z,1868
2018-07-10T05:05:31.550Z,1960
2018-07-10T05:06:31.805Z,2092
2018-07-10T05:07:31.518Z,2116
2018-07-10T05:08:31.777Z,2156
2018-07-10T05:09:31.238Z,2172
2018-07-10T05:10:31.484Z,2224
2018-07-10T05:11:31.455Z,2260
2018-07-10T05:12:31.717Z,2256
2018-07-10T05:13:31.724Z,2144
2018-07-10T05:14:31.161Z,2160
2018-07-10T05:15:31.682Z,2128
2018-07-10T05:16:30.872Z,2228
2018-07-10T05:17:31.650Z,2300
2018-07-10T05:18:31.652Z,2436
2018-07-10T05:19:31.097Z,2296
2018-07-10T05:20:31.349Z,2204
2018-07-10T05:21:31.601Z,2308
2018-07-10T05:22:31.315Z,2420
2018-07-10T05:23:30.786Z,2480
2018-07-10T05:24:31.301Z,2340
2018-07-10T05:25:31.014Z,2416
2018-07-10T05:26:31.009Z,2500
2018-07-10T05:27:31.255Z,2460
2018-07-10T05:28:31.242Z,2540
2018-07-10T05:29:30.972Z,2748
2018-07-10T05:30:31.477Z,2964
2018-07-10T05:31:31.470Z,3028
2018-07-10T05:32:30.931Z,3000
2018-07-10T05:33:31.440Z,3012
2018-07-10T05:34:30.904Z,3020
2018-07-10T05:35:31.153Z,2888
2018-07-10T05:36:31.395Z,2544
2018-07-10T05:37:31.128Z,2484
2018-07-10T05:38:31.108Z,2544
2018-07-10T05:39:30.835Z,2896
2018-07-10T05:40:31.085Z,2964
2018-07-10T05:41:31.071Z,2984
2018-07-10T05:42:31.315Z,3000
2018-07-10T05:43:30.785Z,3140
2018-07-10T05:44:30.774Z,3008
2018-07-10T05:45:31.073Z,2972
2018-07-10T05:46:31.264Z,2940
2018-07-10T05:47:30.995Z,3032
2018-07-10T05:48:30.982Z,3100
2018-07-10T05:49:30.646Z,3060
2018-07-10T05:50:30.955Z,3204
2018-07-10T05:51:30.943Z,3192
2018-07-10T05:52:30.404Z,3248
2018-07-10T05:53:30.947Z,2908
2018-07-10T05:54:30.913Z,2912
2018-07-10T05:55:30.897Z,3232
2018-07-10T05:56:31.136Z,3224
2018-07-10T05:57:30.862Z,3336
2018-07-10T05:58:31.319Z,3476
2018-07-10T05:59:30.586Z,3280
2018-07-10T06:00:31.106Z,3192
2018-07-10T06:01:30.813Z,3088
2018-07-10T06:02:30.835Z,3004
2018-07-10T06:03:30.822Z,2624
2018-07-10T06:04:31.181Z,2344
2018-07-10T06:05:31.033Z,2108
2018-07-10T06:06:30.754Z,1884
2018-07-10T06:07:30.215Z,1764
2018-07-10T06:08:30.991Z,2000
2018-07-10T06:09:30.716Z,2264
2018-07-10T06:10:30.850Z,2296
2018-07-10T06:11:30.697Z,2340
2018-07-10T06:12:30.684Z,2248
2018-07-10T06:13:31.058Z,2544
2018-07-10T06:14:30.940Z,2680
2018-07-10T06:15:30.662Z,2804
2018-07-10T06:16:30.932Z,2812
2018-07-10T06:17:30.620Z,2828
2018-07-10T06:18:30.616Z,2860
2018-07-10T06:19:30.059Z,2536
2018-07-10T06:20:30.846Z,2608
2018-07-10T06:21:30.304Z,3016
2018-07-10T06:22:30.792Z,3380
2018-07-10T06:23:30.288Z,3436
2018-07-10T06:24:30.539Z,3404
2018-07-10T06:25:30.523Z,3636
2018-07-10T06:26:30.769Z,3528
2018-07-10T06:27:30.231Z,3492
2018-07-10T06:28:30.207Z,3808
2018-07-10T06:29:30.737Z,3956
2018-07-10T06:30:30.809Z,4064
2018-07-10T06:31:30.707Z,4328
2018-07-10T06:32:30.429Z,4092
2018-07-10T06:33:30.691Z,4168
2018-07-10T06:34:30.147Z,5052
2018-07-10T06:35:30.661Z,4932
2018-07-10T06:36:30.383Z,4636
2018-07-10T06:37:30.370Z,4636
2018-07-10T06:38:30.089Z,4776
2018-07-10T06:39:30.079Z,4736
2018-07-10T06:40:30.328Z,4224
2018-07-10T06:41:30.055Z,3780
2018-07-10T06:42:30.579Z,3440
2018-07-10T06:43:30.566Z,3356
2018-07-10T06:44:30.285Z,3592
2018-07-10T06:45:30.270Z,3768
2018-07-10T06:46:30.253Z,3056
2018-07-10T06:47:29.979Z,3004
2018-07-10T06:48:30.244Z,3308
2018-07-10T06:49:30.228Z,3292
2018-07-10T06:50:29.947Z,3124
2018-07-10T06:51:29.939Z,3056
2018-07-10T06:52:30.498Z,3208
2018-07-10T06:53:31.225Z,3344
2018-07-10T06:54:30.170Z,3160
2018-07-10T06:55:30.160Z,3176
2018-07-10T06:56:30.141Z,3484
2018-07-10T06:57:30.134Z,3780
2018-07-10T06:58:29.588Z,3720
2018-07-10T06:59:30.366Z,3748
2018-07-10T07:00:29.567Z,3468
2018-07-10T07:01:30.077Z,2700
2018-07-10T07:02:30.264Z,2376
2018-07-10T07:03:30.061Z,2576
2018-07-10T07:04:30.042Z,2260
2018-07-10T07:05:30.032Z,2604
2018-07-10T07:06:30.277Z,2460
2018-07-10T07:07:30.014Z,2332
2018-07-10T07:08:29.732Z,2360
2018-07-10T07:09:29.718Z,2484
2018-07-10T07:10:30.231Z,2636
2018-07-10T07:11:29.956Z,2940
2018-07-10T07:12:29.940Z,2684
2018-07-10T07:13:30.195Z,2156
2018-07-10T07:14:29.656Z,2020
2018-07-10T07:15:29.642Z,2220
2018-07-10T07:16:29.637Z,2448
2018-07-10T07:17:29.613Z,2476
2018-07-10T07:18:30.135Z,1960
2018-07-10T07:19:29.853Z,1872
2018-07-10T07:20:30.120Z,1880
2018-07-10T07:21:29.566Z,1996
2018-07-10T07:22:29.854Z,2036
2018-07-10T07:23:30.067Z,2088
2018-07-10T07:24:29.792Z,2132
2018-07-10T07:25:29.784Z,2016
2018-07-10T07:26:29.774Z,2160
2018-07-10T07:27:29.764Z,2728
2018-07-10T07:28:29.756Z,3364
2018-07-10T07:29:29.758Z,3352
2018-07-10T07:30:29.195Z,3240
2018-07-10T07:31:29.967Z,3428
2018-07-10T07:32:29.748Z,3732
2018-07-10T07:33:29.684Z,3440
2018-07-10T07:34:30.152Z,3084
2018-07-10T07:35:29.388Z,2664
2018-07-10T07:36:29.906Z,2592
2018-07-10T07:37:29.894Z,2748
2018-07-10T07:38:29.365Z,2520
2018-07-10T07:39:29.864Z,2180
2018-07-10T07:40:29.065Z,2268
2018-07-10T07:41:29.591Z,2248
2018-07-10T07:42:29.829Z,2228
2018-07-10T07:43:29.289Z,2144
2018-07-10T07:44:29.833Z,2168
2018-07-10T07:45:29.550Z,2248
2018-07-10T07:46:29.254Z,2624
2018-07-10T07:47:29.771Z,2732
2018-07-10T07:48:29.498Z,2828
2018-07-10T07:49:29.697Z,2280
2018-07-10T07:50:29.737Z,2396
2018-07-10T07:51:29.720Z,2572
2018-07-10T07:52:29.200Z,2380
2018-07-10T07:53:29.465Z,2396
2018-07-10T07:54:29.680Z,2548
2018-07-10T07:55:29.407Z,2624
2018-07-10T07:56:29.393Z,2656
2018-07-10T07:57:29.376Z,2524
2018-07-10T07:58:29.895Z,2080
2018-07-10T07:59:29.658Z,1792
2018-07-10T08:00:29.844Z,1680
2018-07-10T08:01:29.327Z,1896
2018-07-10T08:02:29.063Z,1704
2018-07-10T08:03:29.328Z,1532
2018-07-10T08:04:29.021Z,1700
2018-07-10T08:05:29.552Z,2236
2018-07-10T08:06:29.054Z,2356
2018-07-10T08:07:29.514Z,2380
2018-07-10T08:08:29.245Z,2108
2018-07-10T08:09:28.965Z,2028
2018-07-10T08:10:28.944Z,2716
2018-07-10T08:11:29.200Z,2752
2018-07-10T08:12:29.499Z,2976
2018-07-10T08:13:29.437Z,2928
2018-07-10T08:14:28.889Z,3348
2018-07-10T08:15:28.884Z,3560
2018-07-10T08:16:29.136Z,3496
2018-07-10T08:17:29.139Z,3780
2018-07-10T08:18:28.842Z,3692
2018-07-10T08:19:29.367Z,3648
2018-07-10T08:20:29.387Z,3824
2018-07-10T08:21:29.071Z,3940
2018-07-10T08:22:29.332Z,4756
2018-07-10T08:23:29.042Z,5200
2018-07-10T08:24:29.133Z,5224
2018-07-10T08:25:29.337Z,4844
2018-07-10T08:26:29.014Z,4864
2018-07-10T08:27:28.728Z,5128
2018-07-10T08:28:29.241Z,4280
2018-07-10T08:29:28.719Z,3540
2018-07-10T08:30:29.220Z,2716
2018-07-10T08:31:28.673Z,2968
2018-07-10T08:32:28.939Z,3040
2018-07-10T08:33:29.268Z,3232
2018-07-10T08:34:29.158Z,3624
2018-07-10T08:35:28.623Z,4028
2018-07-10T08:36:28.873Z,4612
2018-07-10T08:37:29.128Z,4348
2018-07-10T08:38:28.849Z,3924
2018-07-10T08:39:28.568Z,5616
2018-07-10T08:40:28.556Z,6440
2018-07-10T08:41:28.278Z,6396
2018-07-10T08:42:28.792Z,5628
2018-07-10T08:43:28.789Z,6532
2018-07-10T08:44:28.760Z,6716
2018-07-10T08:45:29.014Z,6644
2018-07-10T08:46:28.998Z,5448
2018-07-10T08:47:28.737Z,4400
2018-07-10T08:48:28.448Z,4276
2018-07-10T08:49:28.437Z,4316
2018-07-10T08:50:28.416Z,4856
2018-07-10T08:51:28.969Z,5668
2018-07-10T08:52:28.921Z,6148
2018-07-10T08:53:28.916Z,6188
2018-07-10T08:54:28.646Z,6124
2018-07-10T08:55:28.352Z,5352
2018-07-10T08:56:28.622Z,4580
2018-07-10T08:57:28.358Z,4192
2018-07-10T08:58:28.576Z,4352
2018-07-10T08:59:28.298Z,4472
2018-07-10T09:00:28.561Z,4460
2018-07-10T09:01:28.811Z,4672
2018-07-10T09:02:28.523Z,5148
2018-07-10T09:03:28.249Z,5604
2018-07-10T09:04:28.499Z,6260
2018-07-10T09:05:28.219Z,5920
2018-07-10T09:06:28.563Z,5580
2018-07-10T09:07:27.934Z,5484
2018-07-10T09:08:28.712Z,5808
2018-07-10T09:09:28.455Z,5844
2018-07-10T09:10:28.425Z,6100
2018-07-10T09:11:28.669Z,5800
2018-07-10T09:12:28.401Z,5568
2018-07-10T09:13:28.431Z,6164
2018-07-10T09:14:28.633Z,7832
2018-07-10T09:15:28.345Z,7060
2018-07-10T09:16:28.338Z,5884
2018-07-10T09:17:28.342Z,4840
2018-07-10T09:18:28.310Z,4272
2018-07-10T09:19:28.560Z,3840
2018-07-10T09:20:28.548Z,3824
2018-07-10T09:21:28.572Z,4452
2018-07-10T09:22:28.284Z,4488
2018-07-10T09:23:28.512Z,5368
2018-07-10T09:24:28.245Z,6880
2018-07-10T09:25:28.229Z,6792
2018-07-10T09:26:27.940Z,6868
2018-07-10T09:27:28.193Z,7636
2018-07-10T09:28:28.445Z,7772
2018-07-10T09:29:28.167Z,6144
2018-07-10T09:30:28.430Z,5228
2018-07-10T09:31:27.878Z,4360
2018-07-10T09:32:28.391Z,4300
2018-07-10T09:33:28.287Z,3556
2018-07-10T09:34:28.376Z,4272
2018-07-10T09:35:28.361Z,4636
2018-07-10T09:36:28.081Z,4244
2018-07-10T09:37:27.804Z,4044
2018-07-10T09:38:28.329Z,5264
2018-07-10T09:39:27.782Z,5680
2018-07-10T09:40:28.036Z,5916
2018-07-10T09:41:28.012Z,4600
2018-07-10T09:42:27.742Z,4712
2018-07-10T09:43:28.038Z,4680
2018-07-10T09:44:28.504Z,5672
2018-07-10T09:45:28.245Z,4744
2018-07-10T09:46:27.693Z,5232
2018-07-10T09:47:28.200Z,4584
2018-07-10T09:48:27.923Z,4892
2018-07-10T09:49:27.646Z,4860
2018-07-10T09:50:28.098Z,5204
2018-07-10T09:51:27.617Z,5108
2018-07-10T09:52:27.605Z,6136
2018-07-10T09:53:28.120Z,7140
2018-07-10T09:54:27.854Z,6872
2018-07-10T09:55:27.834Z,6236
2018-07-10T09:56:27.563Z,5656
2018-07-10T09:57:28.084Z,5032
2018-07-10T09:58:27.800Z,5380
2018-07-10T09:59:27.573Z,4652
2018-07-10T10:00:28.033Z,4320
2018-07-10T10:01:28.019Z,4264
2018-07-10T10:02:28.013Z,3932
2018-07-10T10:03:27.467Z,4464
2018-07-10T10:04:27.801Z,4588
2018-07-10T10:05:27.709Z,4696
2018-07-10T10:06:27.698Z,4392
2018-07-10T10:07:27.680Z,4264
2018-07-10T10:08:27.860Z,4328
2018-07-10T10:09:27.659Z,4272
2018-07-10T10:10:27.637Z,3820
2018-07-10T10:11:27.642Z,4140
2018-07-10T10:12:27.351Z,4752
2018-07-10T10:13:27.598Z,4676
2018-07-10T10:14:27.328Z,4252
2018-07-10T10:15:27.585Z,4200
2018-07-10T10:16:27.576Z,4628
2018-07-10T10:17:27.825Z,5448
2018-07-10T10:18:27.277Z,5644
2018-07-10T10:19:27.533Z,4724
2018-07-10T10:20:27.516Z,4532
2018-07-10T10:21:27.519Z,4936
2018-07-10T10:22:27.227Z,4456
2018-07-10T10:23:27.524Z,4132
2018-07-10T10:24:27.203Z,4144
2018-07-10T10:25:27.451Z,3460
2018-07-10T10:26:27.175Z,3600
2018-07-10T10:27:27.167Z,4328
2018-07-10T10:28:27.460Z,4316
2018-07-10T10:29:27.404Z,4188
2018-07-10T10:30:27.329Z,3564
2018-07-10T10:31:27.107Z,3108
2018-07-10T10:32:27.371Z,2692
2018-07-10T10:33:27.088Z,2720
2018-07-10T10:34:27.341Z,2964
2018-07-10T10:35:27.608Z,3552
2018-07-10T10:36:27.568Z,3508
2018-07-10T10:37:27.047Z,3496
2018-07-10T10:38:27.280Z,4052
2018-07-10T10:39:27.262Z,4004
2018-07-10T10:40:26.728Z,4116
2018-07-10T10:41:27.597Z,3724
2018-07-10T10:42:27.501Z,3676
2018-07-10T10:43:27.218Z,3980
2018-07-10T10:44:27.211Z,4540
2018-07-10T10:45:27.188Z,4416
2018-07-10T10:46:26.916Z,3792
2018-07-10T10:47:26.640Z,3952
2018-07-10T10:48:26.881Z,4292
2018-07-10T10:49:27.251Z,4672
2018-07-10T10:50:27.404Z,5008
2018-07-10T10:51:27.117Z,5088
2018-07-10T10:52:26.583Z,4340
2018-07-10T10:53:27.358Z,3752
2018-07-10T10:54:26.815Z,4044
2018-07-10T10:55:27.065Z,4896
2018-07-10T10:56:27.315Z,5368
2018-07-10T10:57:26.775Z,5116
2018-07-10T10:58:26.761Z,4736
2018-07-10T10:59:27.009Z,5028
2018-07-10T11:00:26.731Z,4512
2018-07-10T11:01:27.248Z,4376
2018-07-10T11:02:27.500Z,4300
2018-07-10T11:03:27.222Z,4368
2018-07-10T11:04:26.688Z,4080
2018-07-10T11:05:27.204Z,4728
2018-07-10T11:06:27.187Z,6160
2018-07-10T11:07:26.647Z,7552
2018-07-10T11:08:26.893Z,7284
2018-07-10T11:09:26.618Z,5872
2018-07-10T11:10:27.132Z,6412
2018-07-10T11:11:26.585Z,6744
2018-07-10T11:12:26.595Z,7344
2018-07-10T11:13:26.848Z,6704
2018-07-10T11:14:27.084Z,6512
2018-07-10T11:15:26.904Z,13060
2018-07-10T11:16:27.061Z,11976
2018-07-10T11:17:26.790Z,7332
2018-07-10T11:18:26.500Z,5516
2018-07-10T11:19:26.757Z,5028
2018-07-10T11:20:26.742Z,5216
2018-07-10T11:21:26.731Z,6048
2018-07-10T11:22:26.740Z,5472
2018-07-10T11:23:26.972Z,5200
2018-07-10T11:24:26.698Z,5496
2018-07-10T11:25:26.991Z,5080
2018-07-10T11:26:26.675Z,4896
2018-07-10T11:27:26.656Z,4792
2018-07-10T11:28:26.646Z,4404
2018-07-10T11:29:26.893Z,3684
2018-07-10T11:30:26.358Z,3324
2018-07-10T11:31:26.924Z,3132
2018-07-10T11:32:26.601Z,3100
2018-07-10T11:33:26.846Z,3240
2018-07-10T11:34:26.577Z,3468
2018-07-10T11:35:26.569Z,3908
2018-07-10T11:36:26.022Z,4964
2018-07-10T11:37:26.006Z,5152
2018-07-10T11:38:26.803Z,4960
2018-07-10T11:39:27.314Z,5124
2018-07-10T11:40:26.238Z,4752
2018-07-10T11:41:26.510Z,5004
2018-07-10T11:42:26.480Z,6748
2018-07-10T11:43:26.728Z,6576
2018-07-10T11:44:26.714Z,6240
2018-07-10T11:45:26.705Z,6888
2018-07-10T11:46:25.907Z,7144
2018-07-10T11:47:26.413Z,6580
2018-07-10T11:48:26.665Z,7308
2018-07-10T11:49:26.667Z,7448
2018-07-10T11:50:26.582Z,7944
2018-07-10T11:51:26.198Z,9312
2018-07-10T11:52:26.357Z,10288
2018-07-10T11:53:26.351Z,11196
2018-07-10T11:54:26.336Z,10140
2018-07-10T11:55:26.583Z,9952
2018-07-10T11:56:26.574Z,8616
2018-07-10T11:57:26.567Z,6732
2018-07-10T11:58:26.283Z,6396
2018-07-10T11:59:26.273Z,5792
2018-07-10T12:00:26.267Z,4960
2018-07-10T12:01:26.252Z,5172
2018-07-10T12:02:25.985Z,6932
2018-07-10T12:03:26.232Z,5912
2018-07-10T12:04:26.487Z,5788
2018-07-10T12:05:25.941Z,5640
2018-07-10T12:06:26.201Z,5444
2018-07-10T12:07:26.184Z,5828
2018-07-10T12:08:26.433Z,8048
2018-07-10T12:09:26.168Z,9260
2018-07-10T12:10:26.159Z,7924
2018-07-10T12:11:26.148Z,7228
2018-07-10T12:12:26.390Z,8456
2018-07-10T12:13:26.128Z,8424
2018-07-10T12:14:26.386Z,9376
2018-07-10T12:15:25.565Z,11044
2018-07-10T12:16:25.820Z,8772
2018-07-10T12:17:26.074Z,7124
2018-07-10T12:18:25.850Z,7960
2018-07-10T12:19:25.544Z,8768
2018-07-10T12:20:26.309Z,11724
2018-07-10T12:21:25.774Z,47840
2018-07-10T12:22:26.282Z,14856
2018-07-10T12:23:26.007Z,17728
2018-07-10T12:24:26.004Z,26560
2018-07-10T12:25:25.987Z,21184
2018-07-10T12:26:25.706Z,10672
2018-07-10T12:27:25.703Z,9828
2018-07-10T12:28:26.233Z,14116
2018-07-10T12:29:26.205Z,16960
2018-07-10T12:30:25.936Z,7312
2018-07-10T12:31:26.194Z,7568
2018-07-10T12:32:25.915Z,9476
2018-07-10T12:33:25.646Z,8256
2018-07-10T12:34:26.161Z,11672
2018-07-10T12:35:25.895Z,17920
2018-07-10T12:36:26.143Z,13820
2018-07-10T12:37:26.130Z,12244
2018-07-10T12:38:26.122Z,87968
2018-07-10T12:39:25.849Z,29056
2018-07-10T12:40:25.573Z,35584
2018-07-10T12:41:25.827Z,88288
2018-07-10T12:42:25.557Z,89984
2018-07-10T12:43:25.546Z,89952
2018-07-10T12:44:26.066Z,30816
2018-07-10T12:45:26.065Z,90432
2018-07-10T12:46:25.522Z,83616
2018-07-10T12:47:25.512Z,88096
2018-07-10T12:48:26.062Z,82976
2018-07-10T12:49:25.869Z,78272
2018-07-10T12:50:25.762Z,20800
2018-07-10T12:51:25.749Z,17792
2018-07-10T12:52:25.750Z,19744
2018-07-10T12:53:25.745Z,28288
2018-07-10T12:54:25.738Z,92352
2018-07-10T12:55:25.469Z,88096
2018-07-10T12:56:26.147Z,86464
2018-07-10T12:57:25.725Z,93856
2018-07-10T12:58:25.993Z,71072
2018-07-10T12:59:25.719Z,40928
2018-07-10T13:00:25.722Z,12548
2018-07-10T13:01:25.728Z,17056
2018-07-10T13:02:25.705Z,13964
2018-07-10T13:03:25.703Z,7784
2018-07-10T13:04:25.864Z,4568
2018-07-10T13:05:25.166Z,7264
2018-07-10T13:06:25.697Z,14192
2018-07-10T13:07:25.959Z,26912
2018-07-10T13:08:25.948Z,8960
2018-07-10T13:09:25.422Z,7248
2018-07-10T13:10:25.414Z,6008
2018-07-10T13:11:25.926Z,5880
2018-07-10T13:12:25.925Z,4992
2018-07-10T13:13:25.921Z,6056
2018-07-10T13:14:25.650Z,5704
2018-07-10T13:15:25.648Z,5768
2018-07-10T13:16:25.679Z,6904
2018-07-10T13:17:25.628Z,6184
2018-07-10T13:18:25.863Z,4616
2018-07-10T13:19:25.885Z,5072
2018-07-10T13:20:25.886Z,5664
2018-07-10T13:21:25.611Z,4420
2018-07-10T13:22:25.873Z,3864
2018-07-10T13:23:25.854Z,3672
2018-07-10T13:24:25.320Z,3276
2018-07-10T13:25:25.842Z,2396
2018-07-10T13:26:25.568Z,3224
2018-07-10T13:27:25.301Z,4448
2018-07-10T13:28:25.855Z,3748
2018-07-10T13:29:25.018Z,3672
2018-07-10T13:30:25.545Z,3224
2018-07-10T13:31:25.277Z,4764
2018-07-10T13:32:25.525Z,7448
2018-07-10T13:33:25.516Z,5744
2018-07-10T13:34:25.778Z,4644
2018-07-10T13:35:25.501Z,3944
2018-07-10T13:36:25.495Z,3072
2018-07-10T13:37:25.748Z,2040
2018-07-10T13:38:25.216Z,1996